MTPPMDPC

Guest
Details From MTPP - TOUSSAINT LOUVERTURE INTL
To MDPC - Punta Cana Intl
Flight Number -
Tags generated
Created
Modified
Stats Distance 227 nm / 420 km
Max Altitude 19,500 ft / 5,944 m
Waypoints 5
Social Downloads 0
Likes 0
Share VATSIM

Download

Looking for another format? Having issues loading an existing format? Contact us
Advertisement - Login to hide

Notes

Basic altitude profile: - Ascent Rate: 2500ft/min - Ascent Speed: 250kts - Cruise Altitude: 35000ft - Cruise Speed: 420kts - Descent Rate: 1500ft/min - Descent Speed: 250kts Options: - Use NATs: yes - Use PACOTS: yes - Use low airways: yes - Use high airways: yes

Route

MTPP ETBOD G633 TUBAL MDPC

ID Type Via Altitude Latitude Longitude Leg Dist Tot Dist Heading (true) Name
O MTPP APT - 0 ft / 0 m 18.58005˚ -72.29254˚ - 0 nm - TOUSSAINT LOUVERTURE INTL
ETBOD FIX - 8,400 ft / 2,560 m 18.51667˚ -71.88333˚ 23 nm 23 nm 99° / 99° -
OKOSO FIX G633 (AWY-LO) 19,500 ft / 5,944 m 18.32306˚ -70.54750˚ 76 nm 100 nm 98° / 99° -
TUBAL FIX G633 (AWY-LO) 19,500 ft / 5,944 m 18.26089˚ -70.13211˚ 23 nm 124 nm 99° / 99° -
O MDPC APT - 0 ft / 0 m 18.57057˚ -68.36613˚ 102 nm 226 nm 79° / 80° Punta Cana Intl

Altitude Profile

Advertisement - Login to hide

Weather


0- 5 10 15 20 25 30 35+ Temperature / ° C

Clouds and Precipitation
Forecast for 2017-12-11 18:00 UTC. Updated 5 minutes ago

Ground ~20,000 ft ~40,000 ft Winds

MTPP

Details ICAO MTPP (PAP)
Name TOUSSAINT LOUVERTURE INTL
Region Haiti
Timezone America/Port-au-Prince (UTC-5.0)
Stats Elevation 122 ft / 37 m (AMSL)
Location 18.580051° -72.292540°
Runways 1
Magnetic Variation 10.192° W

METAR

MTPP 111700Z 13004KT 9999 FEW026 32/22 Q1012 A2988

Decode

TAF

TAF AMD MTPP 111100Z 1112/1212 10004KT 9999 FEW024 BECMG 1118/1122 30008KT PROB30 TEMPO 1123/1204 4500 SHRA FEW020CB BKN030 BECMG 1206/1210 VRB02KT 8000 NSW FEW016 SCT020

Decode

Departure Runways

ID Width Length Bearing (true) Bearing (mag) Surface Threshold Offset Overrun Length
10 141 ft / 43 m 9,963 ft / 3,037 m 86.96° 97.15° Asphalt 0 ft / 0 m 0 ft / 0 m
28 141 ft / 43 m 9,963 ft / 3,037 m 266.97° 277.16° Asphalt 0 ft / 0 m 0 ft / 0 m

MDPC

Details ICAO MDPC (PUJ)
Name Punta Cana Intl
Region Dominican Republic
Timezone America/Santo_Domingo (UTC-4.0)
Stats Elevation 46 ft / 14 m (AMSL)
Location 18.570574° -68.366130°
Runways 2
Magnetic Variation 12.179° W

METAR

MDPC 111700Z 06005KT 9999 SCT024 28/21 Q1014 NOSIG

Decode

TAF

Not found

Destination Runways

ID Width Length Bearing (true) Bearing (mag) Surface Threshold Offset Overrun Length
08 148 ft / 45 m 10,110 ft / 3,082 m 74.20° 86.38° Asphalt 0 ft / 0 m 374 ft / 114 m
09 148 ft / 45 m 10,163 ft / 3,098 m 84.79° 96.97° Asphalt 0 ft / 0 m 374 ft / 114 m
26 148 ft / 45 m 10,110 ft / 3,082 m 254.21° 266.39° Asphalt 0 ft / 0 m 374 ft / 114 m
27 148 ft / 45 m 10,163 ft / 3,098 m 264.80° 276.98° Asphalt 0 ft / 0 m 374 ft / 114 m

Popular Alternatives